Terminal Aerodrome Forecast
Issued by NWS Newport/Morehead City, NC

Home | Current Version | Previous Version | Text Only | Print | Product List | Glossary Off
Versions: 1 2 3 4 5 6 7 8 9 10 11 12 13 14

236
FTUS42 KMHX 281121
TAFEWN
TAF
KEWN 281121Z 2812/2912 24006KT P6SM SKC
     FM281600 23006KT P6SM SCT040
     FM290900 22005KT 5SM BR SCT250=

USA.gov is the U.S. government's official web portal to all federal, state and local government web resources and services.